Time;durP1;ratioP1;P1;durP2;ratioP2;P2;SDS_P1;SDS_P2;PMS_P1;PMS_P2;Temp;Humidity;BMP_temperature;BMP_pressure;BME280_temperature;BME280_humidity;BME280_pressure;Samples;Min_cycle;Max_cycle;Signal;HPM_P1;HPM_P2
2021/08/04 00:00:35;;;;;;;10.70;7.78;;;13.80;99.90;;;15.14;100.00;100250.28;6278085;22;20007;-88
2021/08/04 00:03:01;;;;;;;9.70;7.47;;;13.80;99.90;;;15.14;100.00;100253.09;6278194;22;20022;-88
2021/08/04 00:05:27;;;;;;;8.85;7.45;;;13.80;99.90;;;15.20;100.00;100253.50;6278644;22;20090;-89
2021/08/04 00:07:53;;;;;;;8.18;7.30;;;13.80;99.90;;;15.25;100.00;100253.13;6278034;22;20003;-89
2021/08/04 00:10:21;;;;;;;8.45;7.22;;;13.80;99.90;;;15.31;100.00;100259.97;6276924;22;20007;-89
2021/08/04 00:12:49;;;;;;;10.45;7.50;;;13.90;99.90;;;15.35;100.00;100260.75;6302467;22;20257;-88
2021/08/04 00:15:17;;;;;;;11.65;7.82;;;13.90;99.90;;;15.35;100.00;100255.13;6276833;22;20344;-87
2021/08/04 00:17:45;;;;;;;8.90;7.05;;;13.90;99.90;;;15.42;100.00;100259.97;6276653;22;20164;-88
2021/08/04 00:20:14;;;;;;;9.63;6.45;;;14.00;99.90;;;15.45;100.00;100256.34;6277139;22;20433;-87
2021/08/04 00:22:40;;;;;;;7.75;6.70;;;14.00;99.90;;;15.44;100.00;100260.41;6279212;22;20373;-89
2021/08/04 00:25:08;;;;;;;11.35;6.80;;;14.00;99.90;;;15.44;100.00;100260.41;6276142;22;20048;-88
2021/08/04 00:27:34;;;;;;;8.18;7.25;;;14.00;99.90;;;15.40;100.00;100257.56;6276129;22;20437;-89
2021/08/04 00:30:00;;;;;;;9.45;6.80;;;14.00;99.90;;;15.37;100.00;100249.13;6278472;22;20007;-88
2021/08/04 00:32:26;;;;;;;8.68;6.90;;;14.00;99.90;;;15.37;100.00;100252.75;6277346;22;20019;-88
2021/08/04 00:34:52;;;;;;;10.20;7.35;;;14.00;99.90;;;15.35;100.00;100257.94;6278993;22;20004;-89
2021/08/04 00:37:18;;;;;;;7.82;6.63;;;14.00;99.90;;;15.34;100.00;100255.56;6281355;22;20003;-89
2021/08/04 00:39:46;;;;;;;8.30;7.07;;;14.00;99.90;;;15.32;100.00;100253.94;6276963;22;20090;-89
2021/08/04 00:42:19;;;;;;;8.48;7.50;;;13.90;99.90;;;15.31;100.00;100252.31;6279295;22;20004;-89
2021/08/04 00:44:47;;;;;;;11.00;7.95;;;13.90;99.90;;;15.29;100.00;100242.66;6278004;22;20018;-88
2021/08/04 00:47:15;;;;;;;11.50;7.38;;;13.90;99.90;;;15.31;100.00;100254.34;6277767;22;20011;-87
2021/08/04 00:49:42;;;;;;;8.73;7.00;;;13.90;99.90;;;15.28;100.00;100253.13;6277198;22;20008;-87
2021/08/04 00:52:09;;;;;;;8.75;6.78;;;13.90;99.90;;;15.24;100.00;100251.50;6277720;22;20035;-89
2021/08/04 00:54:36;;;;;;;7.00;5.90;;;13.90;99.90;;;15.20;100.00;100251.50;6279841;22;20069;-87
2021/08/04 00:57:04;;;;;;;8.48;7.38;;;13.90;99.90;;;15.19;100.00;100254.69;6279042;22;20011;-89
2021/08/04 00:59:30;;;;;;;7.50;6.63;;;13.80;99.90;;;15.17;100.00;100252.31;6276594;22;20011;-88
2021/08/04 01:02:06;;;;;;;7.00;6.30;;;13.80;99.90;;;15.13;100.00;100250.69;6281465;22;20030;-89
2021/08/04 01:05:13;;;;;;;8.60;6.00;;;13.70;99.90;;;15.16;100.00;100250.69;6278492;22;20500;-89
2021/08/04 01:07:53;;;;;;;8.20;6.20;;;13.70;99.90;;;15.18;100.00;100253.13;6302965;22;20011;-90
2021/08/04 01:10:50;;;;;;;7.63;6.82;;;13.70;99.90;;;15.22;100.00;100254.72;6277300;22;20235;-88
2021/08/04 01:13:27;;;;;;;8.00;6.70;;;13.80;99.90;;;15.26;100.00;100263.97;6303595;22;20429;-90
2021/08/04 01:16:13;;;;;;;8.48;6.50;;;13.80;99.90;;;15.27;100.00;100259.16;6304153;22;20011;-88
2021/08/04 01:19:08;;;;;;;9.30;6.25;;;13.80;99.90;;;15.31;100.00;100257.94;6278668;22;20004;-89
2021/08/04 01:22:01;;;;;;;9.65;7.05;;;13.90;99.90;;;15.36;100.00;100258.75;6278229;22;20015;-88
2021/08/04 01:24:45;;;;;;;10.40;7.63;;;13.90;99.90;;;15.39;100.00;100255.94;6278684;22;20067;-89
2021/08/04 01:27:15;;;;;;;10.60;7.82;;;14.00;99.90;;;15.42;100.00;100257.16;6279481;22;20004;-87
2021/08/04 01:29:43;;;;;;;10.05;7.82;;;14.00;99.90;;;15.46;100.00;100260.78;6279023;22;20405;-89
2021/08/04 01:32:12;;;;;;;9.90;7.53;;;14.00;99.90;;;15.51;100.00;100264.03;6280018;22;20008;-90
2021/08/04 01:34:43;;;;;;;7.72;6.43;;;14.00;99.90;;;15.53;100.00;100258.00;6283284;22;19996;-90
2021/08/04 01:37:10;;;;;;;10.85;6.88;;;14.10;99.90;;;15.55;100.00;100259.22;6285291;22;20029;-90
2021/08/04 01:39:37;;;;;;;8.23;6.47;;;14.10;99.90;;;15.51;100.00;100252.78;6280974;22;20004;-90
2021/08/04 01:42:04;;;;;;;11.82;8.10;;;14.10;99.90;;;15.48;100.00;100250.75;6307859;22;20489;-89
2021/08/04 01:44:37;;;;;;;9.00;6.88;;;14.10;99.90;;;15.51;100.00;100249.19;6283799;22;20007;-87
2021/08/04 01:47:06;;;;;;;7.13;6.22;;;14.20;99.90;;;15.52;100.00;100250.75;6284177;22;20389;-90
2021/08/04 01:49:33;;;;;;;6.90;6.20;;;14.10;99.90;;;15.50;100.00;100248.38;6281444;22;20446;-89
2021/08/04 01:52:01;;;;;;;8.82;7.43;;;14.10;99.90;;;15.53;100.00;100253.19;6281617;22;20110;-89
2021/08/04 01:54:28;;;;;;;8.00;6.78;;;14.10;99.90;;;15.57;100.00;100256.78;6282978;22;20003;-91
2021/08/04 01:56:53;;;;;;;8.65;6.65;;;14.10;99.90;;;15.60;100.00;100252.41;6290988;22;20016;-87
2021/08/04 01:59:23;;;;;;;8.32;6.53;;;14.20;99.90;;;15.64;100.00;100253.19;6299729;22;20068;-89
2021/08/04 02:01:50;;;;;;;10.15;7.32;;;14.20;99.90;;;15.62;100.00;100247.97;6280687;22;20008;-89
2021/08/04 02:04:16;;;;;;;9.85;7.68;;;14.20;99.90;;;15.64;100.00;100253.19;6282540;22;20082;-88
2021/08/04 02:07:08;;;;;;;8.85;7.93;;;14.20;99.90;;;15.65;100.00;100249.97;6282962;22;20011;-87
2021/08/04 02:09:50;;;;;;;9.85;7.10;;;14.20;99.90;;;15.68;100.00;100249.16;6288967;22;20062;-86
2021/08/04 02:12:16;;;;;;;9.95;7.25;;;14.20;99.90;;;15.67;100.00;100243.94;6290693;22;20038;-89
2021/08/04 02:14:47;;;;;;;8.98;6.65;;;14.30;99.90;;;15.70;100.00;100248.78;6279715;22;20011;-89
2021/08/04 02:17:32;;;;;;;10.35;7.85;;;14.30;99.90;;;15.64;100.00;100239.09;6280372;22;20004;-88
2021/08/04 02:20:24;;;;;;;8.63;6.20;;;14.20;99.90;;;15.66;100.00;100240.34;6278473;22;20000;-88
2021/08/04 02:23:17;;;;;;;11.02;7.60;;;14.20;99.90;;;15.68;100.00;100239.91;6279017;22;20079;-88
2021/08/04 02:26:21;;;;;;;9.68;7.65;;;14.20;99.90;;;15.68;100.00;100237.91;6280746;22;20347;-89
2021/08/04 02:28:56;;;;;;;8.43;6.53;;;14.20;99.90;;;15.70;100.00;100240.34;6248215;22;20008;-86
2021/08/04 02:31:23;;;;;;;8.25;6.45;;;14.20;99.90;;;15.69;100.00;100235.91;6279173;22;20011;-89
2021/08/04 02:33:51;;;;;;;7.28;6.10;;;14.30;99.90;;;15.69;100.00;100238.72;6279351;22;20034;-90
2021/08/04 02:36:18;;;;;;;7.93;6.43;;;14.20;99.90;;;15.67;100.00;100247.56;6281143;22;20379;-90
2021/08/04 02:38:46;;;;;;;8.57;6.55;;;14.30;99.90;;;15.66;100.00;100236.72;6280614;22;20034;-89
2021/08/04 02:41:13;;;;;;;9.68;6.75;;;14.20;99.90;;;15.64;100.00;100237.09;6280182;22;20074;-87
2021/08/04 02:43:41;;;;;;;8.68;6.88;;;14.20;99.90;;;15.61;100.00;100232.28;6281918;22;20027;-89
2021/08/04 02:46:07;;;;;;;8.02;6.45;;;14.20;99.90;;;15.62;100.00;100239.53;6280326;22;20011;-89
2021/08/04 02:48:35;;;;;;;9.18;6.82;;;14.10;99.90;;;15.62;100.00;100242.34;6282172;22;20043;-88
2021/08/04 02:51:13;;;;;;;7.90;6.10;;;14.20;99.90;;;15.62;100.00;100244.34;6279228;22;20007;-90
2021/08/04 02:53:39;;;;;;;7.85;6.78;;;14.10;99.90;;;15.59;100.00;100240.31;6278521;22;20094;-88
2021/08/04 02:56:05;;;;;;;8.30;7.05;;;14.20;99.90;;;15.59;100.00;100240.31;6279453;22;20053;-87
2021/08/04 02:58:36;;;;;;;9.18;6.93;;;14.20;99.90;;;15.58;100.00;100240.72;6280327;22;20076;-88
2021/08/04 03:01:07;;;;;;;8.05;7.25;;;14.10;99.90;;;15.54;100.00;100239.94;6278900;22;20004;-86
2021/08/04 03:03:34;;;;;;;9.13;6.95;;;14.20;99.90;;;15.50;100.00;100236.31;6279554;22;20090;-89
2021/08/04 03:06:00;;;;;;;9.25;7.13;;;14.10;99.90;;;15.51;100.00;100247.13;6278925;22;20039;-88
2021/08/04 03:08:26;;;;;;;9.35;7.80;;;14.10;99.90;;;15.49;100.00;100251.56;6279064;22;20401;-87
2021/08/04 03:10:52;;;;;;;10.75;7.72;;;14.10;99.90;;;15.47;100.00;100237.88;6279310;22;20007;-90
2021/08/04 03:13:21;;;;;;;9.02;6.97;;;14.10;99.90;;;15.47;100.00;100239.88;6280023;22;20008;-90
2021/08/04 03:15:48;;;;;;;9.38;7.47;;;14.10;99.90;;;15.45;100.00;100233.84;6279788;22;20027;-87
2021/08/04 03:18:14;;;;;;;8.00;6.57;;;14.00;99.90;;;15.47;100.00;100243.50;6279632;22;20004;-89
2021/08/04 03:20:40;;;;;;;9.95;7.13;;;14.10;99.90;;;15.48;100.00;100233.06;6280303;22;20011;-88
2021/08/04 03:23:06;;;;;;;12.07;8.38;;;14.10;99.90;;;15.47;100.00;100237.88;6279656;22;20004;-88
2021/08/04 03:25:32;;;;;;;8.60;6.63;;;14.00;99.90;;;15.48;100.00;100233.88;6278949;22;20081;-89
2021/08/04 03:27:58;;;;;;;8.77;6.90;;;14.10;99.90;;;15.49;100.00;100240.31;6278700;22;20007;-88
2021/08/04 03:30:25;;;;;;;10.38;7.22;;;14.00;99.90;;;15.51;100.00;100243.56;6279542;22;20098;-87
2021/08/04 03:32:51;;;;;;;9.38;7.68;;;14.20;99.90;;;15.51;100.00;100240.72;6278692;22;20011;-86
2021/08/04 03:35:17;;;;;;;10.23;7.97;;;14.10;99.90;;;15.54;100.00;100239.94;6280197;22;20090;-88
2021/08/04 03:37:44;;;;;;;10.13;7.20;;;14.20;99.90;;;15.57;100.00;100248.34;6280091;22;20031;-87
2021/08/04 03:40:11;;;;;;;11.20;6.80;;;14.10;99.90;;;15.56;100.00;100241.13;6279388;22;20053;-90
2021/08/04 03:42:37;;;;;;;12.30;8.30;;;14.10;99.90;;;15.59;100.00;100245.97;6280771;22;20375;-88
2021/08/04 03:45:04;;;;;;;9.95;7.82;;;14.20;99.90;;;15.60;100.00;100241.94;6279449;22;20008;-89
2021/08/04 03:47:30;;;;;;;13.63;8.82;;;14.20;99.90;;;15.59;100.00;100243.13;6278775;22;20007;-90
2021/08/04 03:49:56;;;;;;;11.65;8.27;;;14.20;99.90;;;15.62;100.00;100242.34;6278343;22;20007;-90
2021/08/04 03:52:22;;;;;;;11.82;8.27;;;14.20;99.90;;;15.63;100.00;100243.16;6277159;22;20012;-89
2021/08/04 03:54:48;;;;;;;11.38;7.70;;;14.20;99.90;;;15.62;100.00;100242.34;6280745;22;20035;-91
2021/08/04 03:57:39;;;;;;;10.70;8.95;;;14.20;99.90;;;15.59;100.00;100233.88;6305586;22;20422;-90
2021/08/04 04:00:08;;;;;;;13.50;7.90;;;14.20;99.90;;;15.63;100.00;100241.13;6279304;22;20028;-89
2021/08/04 04:02:34;;;;;;;12.88;8.52;;;14.20;99.90;;;15.67;100.00;100238.28;6281589;22;20006;-90
2021/08/04 04:05:00;;;;;;;12.63;9.13;;;14.20;99.90;;;15.66;100.00;100233.91;6279839;22;20059;-89
2021/08/04 04:07:26;;;;;;;8.85;7.45;;;14.20;99.90;;;15.68;100.00;100246.34;6279939;22;20010;-89
2021/08/04 04:09:52;;;;;;;11.40;7.82;;;14.20;99.90;;;15.68;100.00;100245.53;6282082;22;20129;-89
2021/08/04 04:12:18;;;;;;;12.10;8.35;;;14.20;99.90;;;15.68;100.00;100254.81;6280454;22;20008;-87
2021/08/04 04:14:46;;;;;;;12.85;8.65;;;14.20;99.90;;;15.69;100.00;100249.97;6279495;22;20050;-90
2021/08/04 04:17:13;;;;;;;9.93;8.20;;;14.20;99.90;;;15.74;100.00;100256.00;6280144;22;20004;-89
2021/08/04 04:19:41;;;;;;;12.85;9.13;;;14.20;99.90;;;15.74;100.00;100260.81;6283015;22;20008;-90
2021/08/04 04:22:07;;;;;;;12.60;8.75;;;14.20;99.90;;;15.76;100.00;100266.88;6277347;22;20373;-89
2021/08/04 04:24:33;;;;;;;11.05;7.63;;;14.30;99.90;;;15.78;100.00;100273.72;6277216;22;20004;-90
2021/08/04 04:26:59;;;;;;;10.48;7.60;;;14.30;99.90;;;15.75;100.00;100268.88;6277229;22;20035;-87
2021/08/04 04:29:24;;;;;;;12.57;9.18;;;14.30;99.90;;;15.79;100.00;100274.53;6280229;22;20046;-88
2021/08/04 04:31:50;;;;;;;12.70;9.73;;;14.30;99.90;;;15.77;100.00;100262.84;6276716;22;20008;-91
2021/08/04 04:34:17;;;;;;;13.57;9.75;;;14.30;99.90;;;15.79;100.00;100268.88;6298157;22;20008;-89
2021/08/04 04:36:43;;;;;;;14.15;11.15;;;14.30;99.90;;;15.78;100.00;100273.72;6291584;22;20007;-89
2021/08/04 04:39:09;;;;;;;19.85;14.65;;;14.30;99.90;;;15.78;100.00;100273.72;6277305;22;20283;-91
2021/08/04 04:41:35;;;;;;;23.17;16.63;;;14.30;99.90;;;15.80;100.00;100284.56;6275174;22;20034;-90
2021/08/04 04:44:04;;;;;;;16.58;13.98;;;14.30;99.90;;;15.85;100.00;100278.53;6275867;22;20008;-89
2021/08/04 04:46:30;;;;;;;18.85;14.25;;;14.30;99.90;;;15.87;100.00;100281.75;6252264;22;20457;-88
2021/08/04 04:48:56;;;;;;;17.60;13.43;;;14.40;99.90;;;15.92;100.00;100286.19;6278046;22;20007;-88
2021/08/04 04:51:23;;;;;;;17.20;10.43;;;14.40;99.90;;;15.90;100.00;100289.38;6278312;22;20348;-89
2021/08/04 04:53:50;;;;;;;12.68;9.77;;;14.40;99.90;;;15.92;100.00;100287.00;6281935;22;20015;-90
2021/08/04 04:56:17;;;;;;;14.48;9.55;;;14.40;99.90;;;15.93;100.00;100290.59;6278518;22;20081;-90
2021/08/04 04:58:43;;;;;;;13.32;10.57;;;14.50;99.90;;;15.94;100.00;100290.19;6279653;22;20003;-89
2021/08/04 05:01:09;;;;;;;14.95;11.50;;;14.50;99.90;;;15.94;100.00;100301.47;6279868;22;20057;-91
2021/08/04 05:03:35;;;;;;;12.60;10.55;;;14.50;99.90;;;15.97;100.00;100299.84;6279657;22;20007;-89
2021/08/04 05:06:01;;;;;;;13.45;8.77;;;14.50;99.90;;;16.00;100.00;100305.47;6279599;22;20065;-87
2021/08/04 05:08:27;;;;;;;10.85;8.77;;;14.50;99.90;;;16.02;100.00;100311.50;6275949;22;20507;-87
2021/08/04 05:10:53;;;;;;;10.63;8.38;;;14.60;99.90;;;16.05;100.00;100302.28;6276059;22;20050;-90
2021/08/04 05:13:19;;;;;;;11.05;8.65;;;14.60;99.90;;;16.08;100.00;100304.28;6276926;22;20004;-89
2021/08/04 05:15:45;;;;;;;10.88;8.00;;;14.50;99.90;;;16.08;100.00;100304.28;6275515;22;20027;-87
2021/08/04 05:18:11;;;;;;;12.35;9.38;;;14.60;99.90;;;16.01;100.00;100300.66;6277807;22;20388;-89
2021/08/04 23:24:24;;;;;;;22.40;17.00;;;15.00;99.90;;;16.32;100.00;100139.16;6279186;22;20024;-86
2021/08/04 23:26:49;;;;;;;22.20;16.80;;;15.00;99.90;;;16.32;100.00;100142.00;6278411;22;20011;-91
2021/08/04 23:29:16;;;;;;;19.25;14.60;;;14.90;99.90;;;16.28;100.00;100147.63;6278996;22;20003;-90
2021/08/04 23:31:43;;;;;;;17.25;13.77;;;14.90;99.90;;;16.25;100.00;100136.38;6305071;22;20121;-89
2021/08/04 23:34:09;;;;;;;18.63;14.07;;;14.90;99.90;;;16.19;100.00;100135.19;6280008;22;20057;-90
2021/08/04 23:36:35;;;;;;;16.88;12.13;;;14.80;99.90;;;16.15;100.00;100140.06;6280177;22;20008;-92
2021/08/04 23:39:00;;;;;;;16.45;12.93;;;14.80;99.90;;;16.10;100.00;100121.56;6278462;22;20414;-91
2021/08/04 23:41:26;;;;;;;16.45;13.07;;;14.70;99.90;;;16.07;100.00;100122.38;6279653;22;20003;-92
2021/08/04 23:43:52;;;;;;;18.75;15.52;;;14.70;99.90;;;16.04;100.00;100120.38;6278814;22;20007;-89
2021/08/04 23:46:18;;;;;;;17.42;14.35;;;14.70;99.90;;;16.00;100.00;100130.03;6281256;22;20008;-90
2021/08/04 23:48:44;;;;;;;18.08;14.80;;;14.60;99.90;;;15.96;100.00;100130.03;6276819;22;20322;-91
2021/08/04 23:51:10;;;;;;;19.20;13.27;;;14.60;99.90;;;15.92;100.00;100126.47;6277737;22;20003;-90
2021/08/04 23:53:40;;;;;;;15.80;13.65;;;14.60;99.90;;;15.90;100.00;100126.03;6277189;22;20086;-90
2021/08/04 23:56:06;;;;;;;23.73;18.48;;;14.60;99.90;;;15.91;100.00;100116.41;6286245;22;20014;-88
2021/08/04 23:58:32;;;;;;;20.60;15.10;;;14.60;99.90;;;15.95;100.00;100117.19;6296556;22;20012;-87
